sensor_id;sensor_type;location;lat;lon;timestamp;P1;durP1;ratioP1;P2;durP2;ratioP2
48853;SDS011;34673;52.808;17.856;2022-10-18T00:00:20;32.78;;;21.17;;
48853;SDS011;34673;52.808;17.856;2022-10-18T00:02:47;36.05;;;22.27;;
48853;SDS011;34673;52.808;17.856;2022-10-18T00:05:14;34.72;;;22.42;;
48853;SDS011;34673;52.808;17.856;2022-10-18T00:07:41;34.42;;;23.10;;
48853;SDS011;34673;52.808;17.856;2022-10-18T00:10:08;37.63;;;22.55;;
48853;SDS011;34673;52.808;17.856;2022-10-18T00:12:36;38.45;;;23.70;;
48853;SDS011;34673;52.808;17.856;2022-10-18T00:15:04;34.25;;;22.83;;
48853;SDS011;34673;52.808;17.856;2022-10-18T00:17:33;35.47;;;22.75;;
48853;SDS011;34673;52.808;17.856;2022-10-18T00:20:02;35.45;;;23.30;;
48853;SDS011;34673;52.808;17.856;2022-10-18T00:22:30;36.28;;;23.08;;
48853;SDS011;34673;52.808;17.856;2022-10-18T00:24:59;38.92;;;23.52;;
48853;SDS011;34673;52.808;17.856;2022-10-18T00:27:30;35.17;;;23.27;;
48853;SDS011;34673;52.808;17.856;2022-10-18T00:29:58;36.80;;;23.88;;
48853;SDS011;34673;52.808;17.856;2022-10-18T00:32:25;37.20;;;22.85;;
48853;SDS011;34673;52.808;17.856;2022-10-18T00:34:53;36.00;;;23.60;;
48853;SDS011;34673;52.808;17.856;2022-10-18T00:37:20;35.67;;;23.20;;
48853;SDS011;34673;52.808;17.856;2022-10-18T00:39:47;34.42;;;23.30;;
48853;SDS011;34673;52.808;17.856;2022-10-18T00:42:15;37.03;;;24.67;;
48853;SDS011;34673;52.808;17.856;2022-10-18T00:47:12;35.75;;;23.35;;
48853;SDS011;34673;52.808;17.856;2022-10-18T00:49:43;33.60;;;22.33;;
48853;SDS011;34673;52.808;17.856;2022-10-18T00:52:18;38.47;;;24.13;;
48853;SDS011;34673;52.808;17.856;2022-10-18T00:54:50;34.85;;;23.00;;
48853;SDS011;34673;52.808;17.856;2022-10-18T00:57:18;35.22;;;23.42;;
48853;SDS011;34673;52.808;17.856;2022-10-18T00:59:45;39.25;;;25.17;;
48853;SDS011;34673;52.808;17.856;2022-10-18T01:02:13;38.25;;;24.05;;
48853;SDS011;34673;52.808;17.856;2022-10-18T01:04:47;40.30;;;23.42;;
48853;SDS011;34673;52.808;17.856;2022-10-18T01:10:09;35.65;;;23.20;;
48853;SDS011;34673;52.808;17.856;2022-10-18T01:13:29;39.92;;;24.27;;
48853;SDS011;34673;52.808;17.856;2022-10-18T01:18:38;39.08;;;24.60;;
48853;SDS011;34673;52.808;17.856;2022-10-18T01:23:54;38.08;;;25.30;;
48853;SDS011;34673;52.808;17.856;2022-10-18T01:29:27;33.80;;;23.27;;
48853;SDS011;34673;52.808;17.856;2022-10-18T01:32:13;35.17;;;22.67;;
48853;SDS011;34673;52.808;17.856;2022-10-18T01:34:46;37.35;;;23.77;;
48853;SDS011;34673;52.808;17.856;2022-10-18T01:37:16;36.83;;;22.98;;
48853;SDS011;34673;52.808;17.856;2022-10-18T01:39:47;36.72;;;23.70;;
48853;SDS011;34673;52.808;17.856;2022-10-18T01:42:20;38.40;;;23.98;;
48853;SDS011;34673;52.808;17.856;2022-10-18T01:44:48;41.15;;;25.30;;
48853;SDS011;34673;52.808;17.856;2022-10-18T01:49:46;38.70;;;24.30;;
48853;SDS011;34673;52.808;17.856;2022-10-18T01:52:13;36.70;;;24.08;;
48853;SDS011;34673;52.808;17.856;2022-10-18T01:54:43;39.08;;;24.45;;
48853;SDS011;34673;52.808;17.856;2022-10-18T01:57:25;36.65;;;23.75;;
48853;SDS011;34673;52.808;17.856;2022-10-18T02:00:00;38.75;;;24.25;;
48853;SDS011;34673;52.808;17.856;2022-10-18T02:02:47;36.75;;;24.20;;
48853;SDS011;34673;52.808;17.856;2022-10-18T02:08:01;35.45;;;23.80;;
48853;SDS011;34673;52.808;17.856;2022-10-18T02:10:51;40.20;;;25.73;;
48853;SDS011;34673;52.808;17.856;2022-10-18T02:13:24;37.25;;;24.55;;
48853;SDS011;34673;52.808;17.856;2022-10-18T02:15:56;37.83;;;24.08;;
48853;SDS011;34673;52.808;17.856;2022-10-18T02:18:28;38.63;;;25.10;;
48853;SDS011;34673;52.808;17.856;2022-10-18T02:21:09;37.53;;;26.20;;
48853;SDS011;34673;52.808;17.856;2022-10-18T02:23:39;40.28;;;24.38;;
48853;SDS011;34673;52.808;17.856;2022-10-18T02:26:06;38.50;;;23.33;;
48853;SDS011;34673;52.808;17.856;2022-10-18T02:28:33;38.75;;;24.33;;
48853;SDS011;34673;52.808;17.856;2022-10-18T02:33:33;40.53;;;25.75;;
48853;SDS011;34673;52.808;17.856;2022-10-18T02:36:12;40.97;;;25.08;;
48853;SDS011;34673;52.808;17.856;2022-10-18T02:38:44;43.65;;;25.60;;
48853;SDS011;34673;52.808;17.856;2022-10-18T02:41:12;38.38;;;25.20;;
48853;SDS011;34673;52.808;17.856;2022-10-18T02:43:49;36.33;;;25.55;;
48853;SDS011;34673;52.808;17.856;2022-10-18T02:46:16;43.40;;;26.77;;
48853;SDS011;34673;52.808;17.856;2022-10-18T02:48:43;40.03;;;25.80;;
48853;SDS011;34673;52.808;17.856;2022-10-18T02:51:11;38.72;;;26.38;;
48853;SDS011;34673;52.808;17.856;2022-10-18T02:53:38;41.08;;;26.67;;
48853;SDS011;34673;52.808;17.856;2022-10-18T02:56:06;38.30;;;24.40;;
48853;SDS011;34673;52.808;17.856;2022-10-18T02:58:33;38.92;;;25.83;;
48853;SDS011;34673;52.808;17.856;2022-10-18T03:01:00;38.15;;;25.58;;
48853;SDS011;34673;52.808;17.856;2022-10-18T03:03:28;39.15;;;25.77;;
48853;SDS011;34673;52.808;17.856;2022-10-18T03:05:55;42.60;;;25.50;;
48853;SDS011;34673;52.808;17.856;2022-10-18T03:08:22;42.17;;;25.67;;
48853;SDS011;34673;52.808;17.856;2022-10-18T03:10:49;40.05;;;25.48;;
48853;SDS011;34673;52.808;17.856;2022-10-18T03:13:16;37.78;;;25.42;;
48853;SDS011;34673;52.808;17.856;2022-10-18T03:15:45;41.97;;;27.73;;
48853;SDS011;34673;52.808;17.856;2022-10-18T03:18:13;38.40;;;25.63;;
48853;SDS011;34673;52.808;17.856;2022-10-18T03:20:41;43.38;;;25.35;;
48853;SDS011;34673;52.808;17.856;2022-10-18T03:23:09;41.03;;;26.35;;
48853;SDS011;34673;52.808;17.856;2022-10-18T03:25:36;42.08;;;26.80;;
48853;SDS011;34673;52.808;17.856;2022-10-18T03:28:08;41.67;;;26.08;;
48853;SDS011;34673;52.808;17.856;2022-10-18T03:30:35;42.05;;;26.02;;
48853;SDS011;34673;52.808;17.856;2022-10-18T03:33:04;43.70;;;26.52;;
48853;SDS011;34673;52.808;17.856;2022-10-18T03:35:32;40.08;;;25.75;;
48853;SDS011;34673;52.808;17.856;2022-10-18T03:37:59;39.83;;;25.38;;
48853;SDS011;34673;52.808;17.856;2022-10-18T03:40:27;40.80;;;25.23;;
48853;SDS011;34673;52.808;17.856;2022-10-18T03:42:54;39.35;;;24.85;;
48853;SDS011;34673;52.808;17.856;2022-10-18T03:45:21;41.60;;;27.20;;
48853;SDS011;34673;52.808;17.856;2022-10-18T03:47:54;40.55;;;24.70;;
48853;SDS011;34673;52.808;17.856;2022-10-18T03:50:21;42.63;;;27.48;;
48853;SDS011;34673;52.808;17.856;2022-10-18T03:52:49;42.08;;;26.65;;
48853;SDS011;34673;52.808;17.856;2022-10-18T03:55:16;39.05;;;24.63;;
48853;SDS011;34673;52.808;17.856;2022-10-18T03:57:43;39.22;;;25.50;;
48853;SDS011;34673;52.808;17.856;2022-10-18T04:00:11;40.38;;;25.52;;
48853;SDS011;34673;52.808;17.856;2022-10-18T04:02:39;41.38;;;26.40;;
48853;SDS011;34673;52.808;17.856;2022-10-18T04:05:07;39.50;;;25.05;;
48853;SDS011;34673;52.808;17.856;2022-10-18T04:07:35;40.88;;;25.67;;
48853;SDS011;34673;52.808;17.856;2022-10-18T04:10:07;44.30;;;27.30;;
48853;SDS011;34673;52.808;17.856;2022-10-18T04:12:34;41.92;;;27.10;;
48853;SDS011;34673;52.808;17.856;2022-10-18T04:15:02;41.33;;;27.08;;
48853;SDS011;34673;52.808;17.856;2022-10-18T04:17:29;38.30;;;25.65;;
48853;SDS011;34673;52.808;17.856;2022-10-18T04:19:57;43.65;;;26.65;;
48853;SDS011;34673;52.808;17.856;2022-10-18T04:22:24;39.28;;;25.67;;
48853;SDS011;34673;52.808;17.856;2022-10-18T04:24:52;43.00;;;27.25;;
48853;SDS011;34673;52.808;17.856;2022-10-18T04:27:19;41.80;;;26.45;;
48853;SDS011;34673;52.808;17.856;2022-10-18T04:29:46;40.50;;;26.45;;
48853;SDS011;34673;52.808;17.856;2022-10-18T04:32:14;42.65;;;25.55;;
48853;SDS011;34673;52.808;17.856;2022-10-18T04:34:41;41.63;;;27.92;;
48853;SDS011;34673;52.808;17.856;2022-10-18T04:37:08;47.10;;;28.85;;
48853;SDS011;34673;52.808;17.856;2022-10-18T04:39:35;36.22;;;24.73;;
48853;SDS011;34673;52.808;17.856;2022-10-18T04:42:02;42.33;;;26.38;;
48853;SDS011;34673;52.808;17.856;2022-10-18T04:44:30;39.13;;;26.30;;
48853;SDS011;34673;52.808;17.856;2022-10-18T04:46:57;43.97;;;27.83;;
48853;SDS011;34673;52.808;17.856;2022-10-18T04:49:24;43.80;;;28.00;;
48853;SDS011;34673;52.808;17.856;2022-10-18T04:51:51;45.67;;;26.92;;
48853;SDS011;34673;52.808;17.856;2022-10-18T04:54:19;38.95;;;25.75;;
48853;SDS011;34673;52.808;17.856;2022-10-18T04:56:49;47.67;;;26.60;;
48853;SDS011;34673;52.808;17.856;2022-10-18T04:59:16;44.78;;;27.98;;
48853;SDS011;34673;52.808;17.856;2022-10-18T05:01:43;41.30;;;26.92;;
48853;SDS011;34673;52.808;17.856;2022-10-18T05:04:11;39.25;;;25.55;;
48853;SDS011;34673;52.808;17.856;2022-10-18T05:06:38;44.83;;;27.40;;
48853;SDS011;34673;52.808;17.856;2022-10-18T05:09:05;40.55;;;25.67;;
48853;SDS011;34673;52.808;17.856;2022-10-18T05:11:33;40.67;;;26.88;;
48853;SDS011;34673;52.808;17.856;2022-10-18T05:14:01;41.85;;;26.55;;
48853;SDS011;34673;52.808;17.856;2022-10-18T05:16:28;40.20;;;27.30;;
48853;SDS011;34673;52.808;17.856;2022-10-18T05:18:55;42.55;;;26.15;;
48853;SDS011;34673;52.808;17.856;2022-10-18T05:21:22;42.70;;;26.60;;
48853;SDS011;34673;52.808;17.856;2022-10-18T05:23:49;37.58;;;25.33;;
48853;SDS011;34673;52.808;17.856;2022-10-18T05:26:22;42.08;;;26.70;;
48853;SDS011;34673;52.808;17.856;2022-10-18T05:28:49;38.97;;;26.55;;
48853;SDS011;34673;52.808;17.856;2022-10-18T05:31:16;42.05;;;25.27;;
48853;SDS011;34673;52.808;17.856;2022-10-18T05:33:44;39.45;;;25.17;;
48853;SDS011;34673;52.808;17.856;2022-10-18T05:36:11;40.75;;;26.30;;
48853;SDS011;34673;52.808;17.856;2022-10-18T05:38:41;43.35;;;27.33;;
48853;SDS011;34673;52.808;17.856;2022-10-18T05:41:11;40.75;;;26.23;;
48853;SDS011;34673;52.808;17.856;2022-10-18T05:43:38;39.70;;;26.42;;
48853;SDS011;34673;52.808;17.856;2022-10-18T05:46:06;41.20;;;26.85;;
48853;SDS011;34673;52.808;17.856;2022-10-18T05:48:39;39.47;;;26.50;;
48853;SDS011;34673;52.808;17.856;2022-10-18T05:51:06;42.70;;;26.90;;
48853;SDS011;34673;52.808;17.856;2022-10-18T05:53:34;38.67;;;25.70;;
48853;SDS011;34673;52.808;17.856;2022-10-18T05:56:03;41.10;;;26.38;;
48853;SDS011;34673;52.808;17.856;2022-10-18T05:58:31;38.72;;;26.13;;
48853;SDS011;34673;52.808;17.856;2022-10-18T06:00:59;42.55;;;25.70;;
48853;SDS011;34673;52.808;17.856;2022-10-18T06:03:27;41.50;;;26.48;;
48853;SDS011;34673;52.808;17.856;2022-10-18T06:06:00;37.00;;;25.02;;
48853;SDS011;34673;52.808;17.856;2022-10-18T06:08:32;39.50;;;25.55;;
48853;SDS011;34673;52.808;17.856;2022-10-18T06:11:07;37.17;;;24.15;;
48853;SDS011;34673;52.808;17.856;2022-10-18T06:13:42;42.55;;;26.30;;
48853;SDS011;34673;52.808;17.856;2022-10-18T06:16:12;39.92;;;25.83;;
48853;SDS011;34673;52.808;17.856;2022-10-18T06:18:41;37.00;;;23.70;;
48853;SDS011;34673;52.808;17.856;2022-10-18T06:21:09;43.45;;;25.30;;
48853;SDS011;34673;52.808;17.856;2022-10-18T06:23:36;41.20;;;25.67;;
48853;SDS011;34673;52.808;17.856;2022-10-18T06:26:04;37.42;;;25.30;;
48853;SDS011;34673;52.808;17.856;2022-10-18T06:28:34;40.33;;;23.40;;
48853;SDS011;34673;52.808;17.856;2022-10-18T06:31:02;38.03;;;25.58;;
48853;SDS011;34673;52.808;17.856;2022-10-18T06:33:32;39.53;;;25.48;;
48853;SDS011;34673;52.808;17.856;2022-10-18T06:36:01;37.95;;;24.75;;
48853;SDS011;34673;52.808;17.856;2022-10-18T06:38:32;40.83;;;25.48;;
48853;SDS011;34673;52.808;17.856;2022-10-18T06:41:01;36.33;;;24.83;;
48853;SDS011;34673;52.808;17.856;2022-10-18T06:43:29;37.78;;;25.23;;
48853;SDS011;34673;52.808;17.856;2022-10-18T06:45:56;38.05;;;24.85;;
48853;SDS011;34673;52.808;17.856;2022-10-18T06:48:23;42.25;;;26.23;;
48853;SDS011;34673;52.808;17.856;2022-10-18T06:50:55;38.53;;;24.63;;
48853;SDS011;34673;52.808;17.856;2022-10-18T06:53:24;36.25;;;24.27;;
48853;SDS011;34673;52.808;17.856;2022-10-18T06:55:57;35.75;;;24.30;;
48853;SDS011;34673;52.808;17.856;2022-10-18T06:58:26;37.25;;;24.10;;
48853;SDS011;34673;52.808;17.856;2022-10-18T07:00:54;34.97;;;23.98;;
48853;SDS011;34673;52.808;17.856;2022-10-18T07:03:21;35.72;;;23.75;;
48853;SDS011;34673;52.808;17.856;2022-10-18T07:05:49;36.70;;;24.23;;
48853;SDS011;34673;52.808;17.856;2022-10-18T07:08:16;33.03;;;23.17;;
48853;SDS011;34673;52.808;17.856;2022-10-18T07:10:51;39.15;;;25.00;;
48853;SDS011;34673;52.808;17.856;2022-10-18T07:13:20;38.00;;;23.38;;
48853;SDS011;34673;52.808;17.856;2022-10-18T07:16:04;36.85;;;23.95;;
48853;SDS011;34673;52.808;17.856;2022-10-18T07:18:46;36.63;;;23.70;;
48853;SDS011;34673;52.808;17.856;2022-10-18T07:21:16;34.08;;;21.75;;
48853;SDS011;34673;52.808;17.856;2022-10-18T07:23:46;38.47;;;23.10;;
48853;SDS011;34673;52.808;17.856;2022-10-18T07:26:16;36.35;;;24.45;;
48853;SDS011;34673;52.808;17.856;2022-10-18T07:28:49;38.85;;;25.70;;
48853;SDS011;34673;52.808;17.856;2022-10-18T07:31:20;36.75;;;23.85;;
48853;SDS011;34673;52.808;17.856;2022-10-18T07:33:48;38.60;;;23.45;;
48853;SDS011;34673;52.808;17.856;2022-10-18T07:36:16;36.35;;;23.05;;
48853;SDS011;34673;52.808;17.856;2022-10-18T07:38:43;36.33;;;24.75;;
48853;SDS011;34673;52.808;17.856;2022-10-18T07:41:11;40.75;;;26.73;;
48853;SDS011;34673;52.808;17.856;2022-10-18T07:43:40;40.28;;;25.83;;
48853;SDS011;34673;52.808;17.856;2022-10-18T07:46:09;38.22;;;24.88;;
48853;SDS011;34673;52.808;17.856;2022-10-18T07:48:36;34.78;;;23.65;;
48853;SDS011;34673;52.808;17.856;2022-10-18T07:51:03;41.05;;;25.15;;
48853;SDS011;34673;52.808;17.856;2022-10-18T07:53:31;34.75;;;24.13;;
48853;SDS011;34673;52.808;17.856;2022-10-18T07:56:01;37.33;;;24.40;;
48853;SDS011;34673;52.808;17.856;2022-10-18T07:58:35;34.60;;;24.08;;
48853;SDS011;34673;52.808;17.856;2022-10-18T08:01:02;35.45;;;23.20;;
48853;SDS011;34673;52.808;17.856;2022-10-18T08:03:31;36.38;;;24.38;;
48853;SDS011;34673;52.808;17.856;2022-10-18T08:05:59;34.78;;;22.30;;
48853;SDS011;34673;52.808;17.856;2022-10-18T08:08:27;33.72;;;22.48;;
48853;SDS011;34673;52.808;17.856;2022-10-18T08:11:00;38.22;;;24.17;;
48853;SDS011;34673;52.808;17.856;2022-10-18T08:13:31;37.85;;;23.80;;
48853;SDS011;34673;52.808;17.856;2022-10-18T08:15:59;35.45;;;23.05;;
48853;SDS011;34673;52.808;17.856;2022-10-18T08:18:28;32.80;;;22.10;;
48853;SDS011;34673;52.808;17.856;2022-10-18T08:20:58;35.83;;;24.48;;
48853;SDS011;34673;52.808;17.856;2022-10-18T08:23:26;38.47;;;25.27;;
48853;SDS011;34673;52.808;17.856;2022-10-18T08:25:53;36.70;;;24.48;;
48853;SDS011;34673;52.808;17.856;2022-10-18T08:28:20;37.92;;;25.17;;
48853;SDS011;34673;52.808;17.856;2022-10-18T08:30:48;41.35;;;25.30;;
48853;SDS011;34673;52.808;17.856;2022-10-18T08:33:15;41.63;;;25.08;;
48853;SDS011;34673;52.808;17.856;2022-10-18T08:35:42;39.92;;;26.27;;
48853;SDS011;34673;52.808;17.856;2022-10-18T08:38:09;41.33;;;25.98;;
48853;SDS011;34673;52.808;17.856;2022-10-18T08:40:44;37.33;;;24.67;;
48853;SDS011;34673;52.808;17.856;2022-10-18T08:45:52;37.13;;;24.77;;
48853;SDS011;34673;52.808;17.856;2022-10-18T08:48:23;36.50;;;23.58;;
48853;SDS011;34673;52.808;17.856;2022-10-18T08:50:58;37.13;;;24.38;;
48853;SDS011;34673;52.808;17.856;2022-10-18T08:53:27;36.63;;;24.15;;
48853;SDS011;34673;52.808;17.856;2022-10-18T08:56:11;35.60;;;23.63;;
48853;SDS011;34673;52.808;17.856;2022-10-18T08:58:44;34.42;;;23.50;;
48853;SDS011;34673;52.808;17.856;2022-10-18T09:09:38;36.42;;;23.33;;
48853;SDS011;34673;52.808;17.856;2022-10-18T09:18:41;35.88;;;23.33;;
48853;SDS011;34673;52.808;17.856;2022-10-18T09:24:14;35.88;;;23.65;;
48853;SDS011;34673;52.808;17.856;2022-10-18T09:26:52;35.55;;;23.05;;
48853;SDS011;34673;52.808;17.856;2022-10-18T09:37:38;37.75;;;23.95;;
48853;SDS011;34673;52.808;17.856;2022-10-18T09:40:18;36.17;;;24.02;;
48853;SDS011;34673;52.808;17.856;2022-10-18T09:43:09;36.17;;;23.33;;
48853;SDS011;34673;52.808;17.856;2022-10-18T09:45:39;39.17;;;24.20;;
48853;SDS011;34673;52.808;17.856;2022-10-18T09:48:11;39.85;;;23.45;;
48853;SDS011;34673;52.808;17.856;2022-10-18T09:53:47;33.83;;;22.33;;
48853;SDS011;34673;52.808;17.856;2022-10-18T10:02:14;36.47;;;24.13;;
48853;SDS011;34673;52.808;17.856;2022-10-18T10:04:43;39.72;;;23.77;;
48853;SDS011;34673;52.808;17.856;2022-10-18T10:07:15;39.60;;;24.70;;
48853;SDS011;34673;52.808;17.856;2022-10-18T10:09:57;41.47;;;24.90;;
48853;SDS011;34673;52.808;17.856;2022-10-18T10:17:33;45.80;;;26.35;;
48853;SDS011;34673;52.808;17.856;2022-10-18T10:20:13;42.55;;;28.15;;
48853;SDS011;34673;52.808;17.856;2022-10-18T10:22:46;46.92;;;28.55;;
48853;SDS011;34673;52.808;17.856;2022-10-18T10:25:22;42.95;;;27.55;;
48853;SDS011;34673;52.808;17.856;2022-10-18T10:28:00;43.78;;;28.52;;
48853;SDS011;34673;52.808;17.856;2022-10-18T10:30:31;45.38;;;28.13;;
48853;SDS011;34673;52.808;17.856;2022-10-18T10:33:00;44.53;;;27.83;;
48853;SDS011;34673;52.808;17.856;2022-10-18T10:38:24;43.53;;;27.85;;
48853;SDS011;34673;52.808;17.856;2022-10-18T10:40:52;48.92;;;27.10;;
48853;SDS011;34673;52.808;17.856;2022-10-18T10:43:21;43.45;;;27.02;;
48853;SDS011;34673;52.808;17.856;2022-10-18T10:46:14;39.63;;;25.75;;
48853;SDS011;34673;52.808;17.856;2022-10-18T10:51:15;40.65;;;26.92;;
48853;SDS011;34673;52.808;17.856;2022-10-18T10:59:21;39.15;;;23.75;;
48853;SDS011;34673;52.808;17.856;2022-10-18T11:04:44;34.00;;;22.70;;
48853;SDS011;34673;52.808;17.856;2022-10-18T11:07:30;33.28;;;19.95;;
48853;SDS011;34673;52.808;17.856;2022-10-18T11:12:38;25.38;;;16.10;;
48853;SDS011;34673;52.808;17.856;2022-10-18T11:37:12;14.55;;;7.22;;
48853;SDS011;34673;52.808;17.856;2022-10-18T11:43:43;7.50;;;4.00;;
48853;SDS011;34673;52.808;17.856;2022-10-18T11:58:08;14.63;;;5.93;;
48853;SDS011;34673;52.808;17.856;2022-10-18T12:01:12;9.00;;;5.75;;
48853;SDS011;34673;52.808;17.856;2022-10-18T12:04:07;16.65;;;9.10;;
48853;SDS011;34673;52.808;17.856;2022-10-18T12:06:51;11.18;;;7.10;;
48853;SDS011;34673;52.808;17.856;2022-10-18T12:09:26;10.00;;;5.35;;
48853;SDS011;34673;52.808;17.856;2022-10-18T12:12:19;9.40;;;5.00;;
48853;SDS011;34673;52.808;17.856;2022-10-18T12:14:52;9.23;;;4.65;;
48853;SDS011;34673;52.808;17.856;2022-10-18T12:17:43;5.67;;;3.10;;
48853;SDS011;34673;52.808;17.856;2022-10-18T12:23:01;5.53;;;3.17;;
48853;SDS011;34673;52.808;17.856;2022-10-18T12:25:33;5.20;;;3.05;;
48853;SDS011;34673;52.808;17.856;2022-10-18T12:28:23;8.15;;;3.80;;
48853;SDS011;34673;52.808;17.856;2022-10-18T12:33:24;10.00;;;3.35;;
48853;SDS011;34673;52.808;17.856;2022-10-18T12:38:27;6.50;;;2.72;;
48853;SDS011;34673;52.808;17.856;2022-10-18T12:40:57;8.20;;;2.60;;
48853;SDS011;34673;52.808;17.856;2022-10-18T12:43:29;5.40;;;2.50;;
48853;SDS011;34673;52.808;17.856;2022-10-18T12:46:03;5.45;;;2.58;;
48853;SDS011;34673;52.808;17.856;2022-10-18T12:48:40;4.20;;;2.30;;
48853;SDS011;34673;52.808;17.856;2022-10-18T12:51:12;4.50;;;2.72;;
48853;SDS011;34673;52.808;17.856;2022-10-18T12:53:42;4.63;;;2.97;;
48853;SDS011;34673;52.808;17.856;2022-10-18T12:56:33;7.68;;;2.88;;
48853;SDS011;34673;52.808;17.856;2022-10-18T13:12:50;5.75;;;2.95;;
48853;SDS011;34673;52.808;17.856;2022-10-18T13:15:33;8.80;;;3.10;;
48853;SDS011;34673;52.808;17.856;2022-10-18T13:23:46;9.55;;;4.80;;
48853;SDS011;34673;52.808;17.856;2022-10-18T13:29:57;7.53;;;3.90;;
48853;SDS011;34673;52.808;17.856;2022-10-18T13:41:15;8.48;;;5.85;;
48853;SDS011;34673;52.808;17.856;2022-10-18T14:00:20;12.52;;;8.10;;
48853;SDS011;34673;52.808;17.856;2022-10-18T14:03:19;13.70;;;8.98;;
48853;SDS011;34673;52.808;17.856;2022-10-18T14:06:17;14.57;;;8.95;;
48853;SDS011;34673;52.808;17.856;2022-10-18T14:08:51;12.73;;;8.85;;
48853;SDS011;34673;52.808;17.856;2022-10-18T14:11:49;16.20;;;9.85;;
48853;SDS011;34673;52.808;17.856;2022-10-18T14:25:19;17.95;;;12.40;;
48853;SDS011;34673;52.808;17.856;2022-10-18T14:27:46;20.10;;;12.23;;
48853;SDS011;34673;52.808;17.856;2022-10-18T14:30:19;16.60;;;10.65;;
48853;SDS011;34673;52.808;17.856;2022-10-18T14:32:47;22.00;;;12.18;;
48853;SDS011;34673;52.808;17.856;2022-10-18T14:38:02;21.63;;;12.45;;
48853;SDS011;34673;52.808;17.856;2022-10-18T14:45:36;17.95;;;11.00;;
48853;SDS011;34673;52.808;17.856;2022-10-18T14:48:15;22.10;;;12.93;;
48853;SDS011;34673;52.808;17.856;2022-10-18T14:50:49;16.90;;;10.13;;
48853;SDS011;34673;52.808;17.856;2022-10-18T14:53:27;20.67;;;10.90;;
48853;SDS011;34673;52.808;17.856;2022-10-18T14:56:00;14.50;;;9.60;;
48853;SDS011;34673;52.808;17.856;2022-10-18T14:58:30;29.90;;;13.93;;
48853;SDS011;34673;52.808;17.856;2022-10-18T15:00:58;16.13;;;10.48;;
48853;SDS011;34673;52.808;17.856;2022-10-18T15:03:25;17.15;;;10.07;;
48853;SDS011;34673;52.808;17.856;2022-10-18T15:05:55;15.25;;;9.77;;
48853;SDS011;34673;52.808;17.856;2022-10-18T15:08:25;21.63;;;11.80;;
48853;SDS011;34673;52.808;17.856;2022-10-18T15:11:13;17.77;;;10.32;;
48853;SDS011;34673;52.808;17.856;2022-10-18T15:16:24;17.88;;;11.63;;
48853;SDS011;34673;52.808;17.856;2022-10-18T15:19:02;16.33;;;12.30;;
48853;SDS011;34673;52.808;17.856;2022-10-18T15:24:40;17.80;;;12.43;;
48853;SDS011;34673;52.808;17.856;2022-10-18T15:29:46;19.75;;;13.23;;
48853;SDS011;34673;52.808;17.856;2022-10-18T15:32:23;19.20;;;12.70;;
48853;SDS011;34673;52.808;17.856;2022-10-18T15:34:52;20.88;;;14.15;;
48853;SDS011;34673;52.808;17.856;2022-10-18T15:37:29;22.25;;;14.48;;
48853;SDS011;34673;52.808;17.856;2022-10-18T15:40:15;17.13;;;12.18;;
48853;SDS011;34673;52.808;17.856;2022-10-18T15:42:49;19.23;;;12.90;;
48853;SDS011;34673;52.808;17.856;2022-10-18T15:50:38;22.33;;;14.60;;
48853;SDS011;34673;52.808;17.856;2022-10-18T15:55:50;23.73;;;13.00;;
48853;SDS011;34673;52.808;17.856;2022-10-18T15:58:39;26.42;;;14.95;;
48853;SDS011;34673;52.808;17.856;2022-10-18T16:01:15;19.65;;;12.60;;
48853;SDS011;34673;52.808;17.856;2022-10-18T16:03:46;18.88;;;12.00;;
48853;SDS011;34673;52.808;17.856;2022-10-18T16:06:14;21.60;;;12.30;;
48853;SDS011;34673;52.808;17.856;2022-10-18T16:08:45;20.20;;;11.30;;
48853;SDS011;34673;52.808;17.856;2022-10-18T16:11:18;16.08;;;10.05;;
48853;SDS011;34673;52.808;17.856;2022-10-18T16:13:47;17.35;;;10.35;;
48853;SDS011;34673;52.808;17.856;2022-10-18T16:16:22;14.25;;;10.43;;
48853;SDS011;34673;52.808;17.856;2022-10-18T16:18:51;17.30;;;10.00;;
48853;SDS011;34673;52.808;17.856;2022-10-18T16:21:23;15.23;;;10.52;;
48853;SDS011;34673;52.808;17.856;2022-10-18T16:23:56;16.17;;;10.20;;
48853;SDS011;34673;52.808;17.856;2022-10-18T16:26:24;18.20;;;10.43;;
48853;SDS011;34673;52.808;17.856;2022-10-18T16:28:52;17.02;;;10.27;;
48853;SDS011;34673;52.808;17.856;2022-10-18T16:31:22;15.60;;;10.88;;
48853;SDS011;34673;52.808;17.856;2022-10-18T16:33:52;16.55;;;10.82;;
48853;SDS011;34673;52.808;17.856;2022-10-18T16:36:22;22.27;;;11.95;;
48853;SDS011;34673;52.808;17.856;2022-10-18T16:38:51;19.75;;;13.00;;
48853;SDS011;34673;52.808;17.856;2022-10-18T16:41:20;22.02;;;13.30;;
48853;SDS011;34673;52.808;17.856;2022-10-18T16:43:49;21.85;;;13.05;;
48853;SDS011;34673;52.808;17.856;2022-10-18T16:46:25;22.40;;;13.00;;
48853;SDS011;34673;52.808;17.856;2022-10-18T16:48:54;21.05;;;12.30;;
48853;SDS011;34673;52.808;17.856;2022-10-18T16:51:22;16.15;;;11.35;;
48853;SDS011;34673;52.808;17.856;2022-10-18T16:53:49;18.13;;;11.75;;
48853;SDS011;34673;52.808;17.856;2022-10-18T16:56:28;19.50;;;11.90;;
48853;SDS011;34673;52.808;17.856;2022-10-18T16:58:57;19.50;;;12.48;;
48853;SDS011;34673;52.808;17.856;2022-10-18T17:01:25;18.13;;;12.07;;
48853;SDS011;34673;52.808;17.856;2022-10-18T17:03:53;21.77;;;12.50;;
48853;SDS011;34673;52.808;17.856;2022-10-18T17:06:22;21.83;;;13.38;;
48853;SDS011;34673;52.808;17.856;2022-10-18T17:08:52;19.08;;;12.35;;
48853;SDS011;34673;52.808;17.856;2022-10-18T17:11:20;16.35;;;11.13;;
48853;SDS011;34673;52.808;17.856;2022-10-18T17:13:50;17.73;;;10.80;;
48853;SDS011;34673;52.808;17.856;2022-10-18T17:18:50;21.73;;;12.55;;
48853;SDS011;34673;52.808;17.856;2022-10-18T17:21:18;20.75;;;12.73;;
48853;SDS011;34673;52.808;17.856;2022-10-18T17:23:45;16.52;;;10.90;;
48853;SDS011;34673;52.808;17.856;2022-10-18T17:26:14;19.55;;;13.25;;
48853;SDS011;34673;52.808;17.856;2022-10-18T17:28:56;20.92;;;13.23;;
48853;SDS011;34673;52.808;17.856;2022-10-18T17:33:53;16.42;;;11.10;;
48853;SDS011;34673;52.808;17.856;2022-10-18T17:36:21;22.10;;;13.48;;
48853;SDS011;34673;52.808;17.856;2022-10-18T17:38:49;19.65;;;12.88;;
48853;SDS011;34673;52.808;17.856;2022-10-18T17:41:17;23.80;;;13.70;;
48853;SDS011;34673;52.808;17.856;2022-10-18T17:43:45;20.05;;;13.05;;
48853;SDS011;34673;52.808;17.856;2022-10-18T17:46:14;19.70;;;13.18;;
48853;SDS011;34673;52.808;17.856;2022-10-18T17:48:41;23.35;;;12.57;;
48853;SDS011;34673;52.808;17.856;2022-10-18T17:51:09;24.25;;;13.38;;
48853;SDS011;34673;52.808;17.856;2022-10-18T17:53:39;18.35;;;12.27;;
48853;SDS011;34673;52.808;17.856;2022-10-18T17:56:06;21.90;;;12.85;;
48853;SDS011;34673;52.808;17.856;2022-10-18T17:58:34;22.02;;;13.30;;
48853;SDS011;34673;52.808;17.856;2022-10-18T18:01:08;20.95;;;13.68;;
48853;SDS011;34673;52.808;17.856;2022-10-18T18:03:35;18.65;;;12.07;;
48853;SDS011;34673;52.808;17.856;2022-10-18T18:06:15;22.45;;;14.55;;
48853;SDS011;34673;52.808;17.856;2022-10-18T18:08:44;20.67;;;13.40;;